sensor_id;sensor_type;location;lat;lon;timestamp;pressure;altitude;pressure_sealevel;temperature;humidity
37298;BME280;30517;51.932;4.278;2024-01-30T00:02:25;102579.06;;;8.70;72.87
37298;BME280;30517;51.932;4.278;2024-01-30T00:05:06;102581.78;;;8.73;72.82
37298;BME280;30517;51.932;4.278;2024-01-30T00:07:47;102562.41;;;8.71;72.91
37298;BME280;30517;51.932;4.278;2024-01-30T00:10:28;102563.28;;;8.70;73.12
37298;BME280;30517;51.932;4.278;2024-01-30T00:13:09;102545.69;;;8.69;73.00
37298;BME280;30517;51.932;4.278;2024-01-30T00:15:50;102557.06;;;8.68;73.24
37298;BME280;30517;51.932;4.278;2024-01-30T00:18:31;102534.97;;;8.63;72.49
37298;BME280;30517;51.932;4.278;2024-01-30T00:21:12;102556.44;;;8.75;72.90
37298;BME280;30517;51.932;4.278;2024-01-30T00:23:53;102550.25;;;8.75;72.28
37298;BME280;30517;51.932;4.278;2024-01-30T00:26:34;102549.34;;;8.74;72.11
37298;BME280;30517;51.932;4.278;2024-01-30T00:29:15;102542.25;;;8.72;72.45
37298;BME280;30517;51.932;4.278;2024-01-30T00:31:59;102544.78;;;8.69;72.39
37298;BME280;30517;51.932;4.278;2024-01-30T00:34:41;102561.63;;;8.74;72.37
37298;BME280;30517;51.932;4.278;2024-01-30T00:37:23;102574.00;;;8.76;72.63
37298;BME280;30517;51.932;4.278;2024-01-30T00:40:04;102565.16;;;8.74;72.46
37298;BME280;30517;51.932;4.278;2024-01-30T00:42:46;102538.34;;;8.59;72.97
37298;BME280;30517;51.932;4.278;2024-01-30T00:45:27;102560.69;;;8.72;72.45
37298;BME280;30517;51.932;4.278;2024-01-30T00:48:08;102554.53;;;8.71;72.51
37298;BME280;30517;51.932;4.278;2024-01-30T00:50:49;102557.16;;;8.71;72.57
37298;BME280;30517;51.932;4.278;2024-01-30T00:53:30;102562.50;;;8.74;72.60
37298;BME280;30517;51.932;4.278;2024-01-30T00:56:11;102547.50;;;8.70;72.81
37298;BME280;30517;51.932;4.278;2024-01-30T00:58:52;102455.13;;;8.08;72.48
37298;BME280;30517;51.932;4.278;2024-01-30T01:01:33;102553.47;;;8.66;72.77
37298;BME280;30517;51.932;4.278;2024-01-30T01:04:13;102544.84;;;8.70;72.92
37298;BME280;30517;51.932;4.278;2024-01-30T01:06:58;102538.56;;;8.67;72.76
37298;BME280;30517;51.932;4.278;2024-01-30T01:09:41;102538.75;;;8.71;72.60
37298;BME280;30517;51.932;4.278;2024-01-30T01:12:22;102512.25;;;8.65;72.14
37298;BME280;30517;51.932;4.278;2024-01-30T01:15:03;102524.63;;;8.69;72.15
37298;BME280;30517;51.932;4.278;2024-01-30T01:17:43;102519.59;;;8.75;72.72
37298;BME280;30517;51.932;4.278;2024-01-30T01:20:24;102511.53;;;8.71;72.70
37298;BME280;30517;51.932;4.278;2024-01-30T01:23:05;102516.00;;;8.73;72.79
37298;BME280;30517;51.932;4.278;2024-01-30T01:25:46;102530.06;;;8.74;72.80
37298;BME280;30517;51.932;4.278;2024-01-30T01:28:27;102500.63;;;8.58;72.48
37298;BME280;30517;51.932;4.278;2024-01-30T01:31:09;102525.59;;;8.71;72.46
37298;BME280;30517;51.932;4.278;2024-01-30T01:33:50;102519.50;;;8.72;72.37
37298;BME280;30517;51.932;4.278;2024-01-30T01:36:30;102527.50;;;8.77;72.07
37298;BME280;30517;51.932;4.278;2024-01-30T01:39:11;102530.13;;;8.75;72.17
37298;BME280;30517;51.932;4.278;2024-01-30T01:41:52;102507.88;;;8.66;72.81
37298;BME280;30517;51.932;4.278;2024-01-30T01:44:33;102514.25;;;8.72;72.11
37298;BME280;30517;51.932;4.278;2024-01-30T01:47:14;102535.47;;;8.78;72.74
37298;BME280;30517;51.932;4.278;2024-01-30T01:49:55;102508.06;;;8.72;72.52
37298;BME280;30517;51.932;4.278;2024-01-30T01:52:37;102510.94;;;8.79;72.62
37298;BME280;30517;51.932;4.278;2024-01-30T01:55:21;102499.34;;;8.73;72.10
37298;BME280;30517;51.932;4.278;2024-01-30T01:58:03;102483.34;;;8.67;72.30
37298;BME280;30517;51.932;4.278;2024-01-30T02:00:45;102521.38;;;8.76;72.25
37298;BME280;30517;51.932;4.278;2024-01-30T02:03:27;102510.94;;;8.79;72.59
37298;BME280;30517;51.932;4.278;2024-01-30T02:06:07;102518.09;;;8.83;72.31
37298;BME280;30517;51.932;4.278;2024-01-30T02:08:48;102509.34;;;8.84;72.15
37298;BME280;30517;51.932;4.278;2024-01-30T02:11:29;102522.44;;;8.83;72.71
37298;BME280;30517;51.932;4.278;2024-01-30T02:14:10;102517.25;;;8.84;72.39
37298;BME280;30517;51.932;4.278;2024-01-30T02:16:51;102528.75;;;8.88;72.54
37298;BME280;30517;51.932;4.278;2024-01-30T02:19:32;102527.84;;;8.88;72.56
37298;BME280;30517;51.932;4.278;2024-01-30T02:22:13;102533.19;;;8.89;72.34
37298;BME280;30517;51.932;4.278;2024-01-30T02:24:54;102520.84;;;8.88;72.52
37298;BME280;30517;51.932;4.278;2024-01-30T02:27:35;102488.81;;;8.73;72.18
37298;BME280;30517;51.932;4.278;2024-01-30T02:30:16;102510.22;;;8.85;72.83
37298;BME280;30517;51.932;4.278;2024-01-30T02:32:58;102507.56;;;8.83;72.21
37298;BME280;30517;51.932;4.278;2024-01-30T02:35:39;102500.72;;;8.89;72.43
37298;BME280;30517;51.932;4.278;2024-01-30T02:38:20;102482.88;;;8.80;72.29
37298;BME280;30517;51.932;4.278;2024-01-30T02:41:01;102464.25;;;8.72;72.15
37298;BME280;30517;51.932;4.278;2024-01-30T02:43:42;102470.66;;;8.80;72.50
37298;BME280;30517;51.932;4.278;2024-01-30T02:46:23;102468.84;;;8.79;72.26
37298;BME280;30517;51.932;4.278;2024-01-30T02:49:04;102454.72;;;8.77;72.80
37298;BME280;30517;51.932;4.278;2024-01-30T02:51:45;102481.53;;;8.93;72.81
37298;BME280;30517;51.932;4.278;2024-01-30T02:54:26;102480.56;;;8.89;72.19
37298;BME280;30517;51.932;4.278;2024-01-30T02:57:07;102500.00;;;8.94;72.28
37298;BME280;30517;51.932;4.278;2024-01-30T02:59:48;102491.88;;;8.86;72.40
37298;BME280;30517;51.932;4.278;2024-01-30T03:02:29;102491.16;;;8.92;72.25
37298;BME280;30517;51.932;4.278;2024-01-30T03:05:10;102443.94;;;8.68;72.77
37298;BME280;30517;51.932;4.278;2024-01-30T03:07:51;102450.09;;;8.69;72.33
37298;BME280;30517;51.932;4.278;2024-01-30T03:10:32;102477.59;;;8.78;72.63
37298;BME280;30517;51.932;4.278;2024-01-30T03:13:13;102475.19;;;8.86;72.96
37298;BME280;30517;51.932;4.278;2024-01-30T03:15:54;102488.63;;;8.95;72.80
37298;BME280;30517;51.932;4.278;2024-01-30T03:18:34;102475.13;;;8.84;72.83
37298;BME280;30517;51.932;4.278;2024-01-30T03:21:15;102480.59;;;8.91;72.53
37298;BME280;30517;51.932;4.278;2024-01-30T03:23:56;102484.94;;;8.89;72.54
37298;BME280;30517;51.932;4.278;2024-01-30T03:26:38;102452.00;;;8.74;72.39
37298;BME280;30517;51.932;4.278;2024-01-30T03:29:18;102486.06;;;8.97;72.54
37298;BME280;30517;51.932;4.278;2024-01-30T03:31:59;102477.13;;;8.92;73.00
37298;BME280;30517;51.932;4.278;2024-01-30T03:34:40;102465.56;;;8.86;72.41
37298;BME280;30517;51.932;4.278;2024-01-30T03:37:21;102482.63;;;8.99;72.64
37298;BME280;30517;51.932;4.278;2024-01-30T03:40:03;102464.84;;;8.92;72.72
37298;BME280;30517;51.932;4.278;2024-01-30T03:42:44;102469.50;;;9.01;72.41
37298;BME280;30517;51.932;4.278;2024-01-30T03:45:25;102485.25;;;8.99;72.79
37298;BME280;30517;51.932;4.278;2024-01-30T03:48:06;102474.28;;;8.85;72.63
37298;BME280;30517;51.932;4.278;2024-01-30T03:50:47;102482.63;;;8.99;72.94
37298;BME280;30517;51.932;4.278;2024-01-30T03:53:28;102425.13;;;8.56;72.30
37298;BME280;30517;51.932;4.278;2024-01-30T03:56:09;102464.00;;;8.93;72.85
37298;BME280;30517;51.932;4.278;2024-01-30T03:58:51;102469.41;;;8.98;72.91
37298;BME280;30517;51.932;4.278;2024-01-30T04:01:31;102448.75;;;8.81;72.59
37298;BME280;30517;51.932;4.278;2024-01-30T04:04:12;102483.59;;;9.03;72.37
37298;BME280;30517;51.932;4.278;2024-01-30T04:06:53;102479.19;;;9.02;72.69
37298;BME280;30517;51.932;4.278;2024-01-30T04:09:34;102457.91;;;8.94;72.70
37298;BME280;30517;51.932;4.278;2024-01-30T04:12:15;102468.53;;;8.99;72.78
37298;BME280;30517;51.932;4.278;2024-01-30T04:14:57;102468.59;;;9.00;72.48
37298;BME280;30517;51.932;4.278;2024-01-30T04:17:38;102466.03;;;9.02;72.35
37298;BME280;30517;51.932;4.278;2024-01-30T04:20:20;102464.31;;;9.04;72.95
37298;BME280;30517;51.932;4.278;2024-01-30T04:23:01;102438.47;;;8.91;72.64
37298;BME280;30517;51.932;4.278;2024-01-30T04:25:42;102463.50;;;9.05;72.90
37298;BME280;30517;51.932;4.278;2024-01-30T04:28:22;102460.88;;;9.06;72.76
37298;BME280;30517;51.932;4.278;2024-01-30T04:31:03;102436.88;;;8.96;72.48
37298;BME280;30517;51.932;4.278;2024-01-30T04:33:44;102441.41;;;9.00;72.80
37298;BME280;30517;51.932;4.278;2024-01-30T04:36:25;102418.28;;;8.90;72.30
37298;BME280;30517;51.932;4.278;2024-01-30T04:39:06;102419.22;;;8.92;72.26
37298;BME280;30517;51.932;4.278;2024-01-30T04:41:48;102446.03;;;9.08;72.41
37298;BME280;30517;51.932;4.278;2024-01-30T04:44:29;102406.72;;;8.84;72.46
37298;BME280;30517;51.932;4.278;2024-01-30T04:47:10;102439.88;;;9.08;72.74
37298;BME280;30517;51.932;4.278;2024-01-30T04:49:52;102446.75;;;9.03;72.40
37298;BME280;30517;51.932;4.278;2024-01-30T04:52:33;102457.44;;;9.09;72.63
37298;BME280;30517;51.932;4.278;2024-01-30T04:55:14;102441.50;;;9.04;72.79
37298;BME280;30517;51.932;4.278;2024-01-30T04:57:55;102396.41;;;8.62;72.21
37298;BME280;30517;51.932;4.278;2024-01-30T05:00:35;102439.88;;;9.08;72.77
37298;BME280;30517;51.932;4.278;2024-01-30T05:03:17;102414.78;;;8.91;72.38
37298;BME280;30517;51.932;4.278;2024-01-30T05:05:58;102455.69;;;9.08;72.45
37298;BME280;30517;51.932;4.278;2024-01-30T05:08:38;102447.09;;;9.15;72.31
37298;BME280;30517;51.932;4.278;2024-01-30T05:11:19;102455.78;;;9.13;72.79
37298;BME280;30517;51.932;4.278;2024-01-30T05:14:00;102451.38;;;9.10;72.70
37298;BME280;30517;51.932;4.278;2024-01-30T05:16:41;102441.56;;;9.06;72.20
37298;BME280;30517;51.932;4.278;2024-01-30T05:19:26;102449.69;;;9.14;72.35
37298;BME280;30517;51.932;4.278;2024-01-30T05:22:07;102464.53;;;9.10;72.72
37298;BME280;30517;51.932;4.278;2024-01-30T05:24:48;102436.47;;;9.12;72.63
37298;BME280;30517;51.932;4.278;2024-01-30T05:27:29;102440.59;;;9.33;73.78
37298;BME280;30517;51.932;4.278;2024-01-30T05:30:11;102447.47;;;9.27;73.55
37298;BME280;30517;51.932;4.278;2024-01-30T05:32:51;102447.03;;;9.44;73.17
37298;BME280;30517;51.932;4.278;2024-01-30T05:35:32;102443.25;;;9.34;72.89
37298;BME280;30517;51.932;4.278;2024-01-30T05:38:15;102460.78;;;9.34;72.78
37298;BME280;30517;51.932;4.278;2024-01-30T05:40:56;102450.09;;;9.27;73.16
37298;BME280;30517;51.932;4.278;2024-01-30T05:43:41;102458.00;;;9.27;72.78
37298;BME280;30517;51.932;4.278;2024-01-30T05:46:22;102440.06;;;9.14;72.33
37298;BME280;30517;51.932;4.278;2024-01-30T05:49:03;102454.41;;;9.25;73.23
37298;BME280;30517;51.932;4.278;2024-01-30T05:51:44;102450.75;;;9.20;72.90
37298;BME280;30517;51.932;4.278;2024-01-30T05:54:25;102449.84;;;9.18;72.67
37298;BME280;30517;51.932;4.278;2024-01-30T05:57:06;102447.06;;;9.14;72.92
37298;BME280;30517;51.932;4.278;2024-01-30T05:59:47;102462.41;;;9.28;72.65
37298;BME280;30517;51.932;4.278;2024-01-30T06:02:27;102468.66;;;9.32;72.71
37298;BME280;30517;51.932;4.278;2024-01-30T06:05:08;102460.94;;;9.08;72.87
37298;BME280;30517;51.932;4.278;2024-01-30T06:07:49;102443.47;;;9.10;73.30
37298;BME280;30517;51.932;4.278;2024-01-30T06:10:30;102466.94;;;9.64;73.84
37298;BME280;30517;51.932;4.278;2024-01-30T06:13:11;102466.44;;;9.47;74.11
37298;BME280;30517;51.932;4.278;2024-01-30T06:15:52;102458.91;;;9.60;73.35
37298;BME280;30517;51.932;4.278;2024-01-30T06:18:33;102460.47;;;9.53;73.27
37298;BME280;30517;51.932;4.278;2024-01-30T06:21:14;102429.13;;;9.30;73.33
37298;BME280;30517;51.932;4.278;2024-01-30T06:23:55;102435.97;;;9.24;73.03
37298;BME280;30517;51.932;4.278;2024-01-30T06:26:36;102446.81;;;9.35;72.90
37298;BME280;30517;51.932;4.278;2024-01-30T06:29:17;102459.28;;;9.42;73.11
37298;BME280;30517;51.932;4.278;2024-01-30T06:31:58;102439.63;;;9.29;72.96
37298;BME280;30517;51.932;4.278;2024-01-30T06:34:38;102477.78;;;9.43;73.05
37298;BME280;30517;51.932;4.278;2024-01-30T06:37:20;102456.34;;;9.31;73.26
37298;BME280;30517;51.932;4.278;2024-01-30T06:40:02;102469.69;;;9.37;74.66
37298;BME280;30517;51.932;4.278;2024-01-30T06:42:45;102470.44;;;9.33;74.43
37298;BME280;30517;51.932;4.278;2024-01-30T06:45:26;102434.53;;;9.35;73.48
37298;BME280;30517;51.932;4.278;2024-01-30T06:48:07;102463.16;;;9.55;73.18
37298;BME280;30517;51.932;4.278;2024-01-30T06:50:49;102430.88;;;9.31;73.18
37298;BME280;30517;51.932;4.278;2024-01-30T06:53:31;102464.59;;;9.43;73.28
37298;BME280;30517;51.932;4.278;2024-01-30T06:56:12;102459.19;;;9.39;73.21
37298;BME280;30517;51.932;4.278;2024-01-30T06:58:54;102459.06;;;9.34;73.54
37298;BME280;30517;51.932;4.278;2024-01-30T07:01:35;102471.47;;;9.38;73.32
37298;BME280;30517;51.932;4.278;2024-01-30T07:04:15;102475.13;;;9.43;73.54
37298;BME280;30517;51.932;4.278;2024-01-30T07:06:57;102477.84;;;9.46;73.48
37298;BME280;30517;51.932;4.278;2024-01-30T07:09:39;102481.69;;;9.27;74.38
37298;BME280;30517;51.932;4.278;2024-01-30T07:12:20;102474.59;;;9.25;75.39
37298;BME280;30517;51.932;4.278;2024-01-30T07:15:00;102477.91;;;9.48;74.66
37298;BME280;30517;51.932;4.278;2024-01-30T07:17:43;102463.97;;;9.52;73.75
37298;BME280;30517;51.932;4.278;2024-01-30T07:20:23;102447.03;;;9.44;73.19
37298;BME280;30517;51.932;4.278;2024-01-30T07:23:04;102459.19;;;9.39;73.82
37298;BME280;30517;51.932;4.278;2024-01-30T07:25:46;102495.72;;;9.58;73.60
37298;BME280;30517;51.932;4.278;2024-01-30T07:28:28;102477.09;;;9.50;73.59
37298;BME280;30517;51.932;4.278;2024-01-30T07:31:09;102483.03;;;9.43;75.70
37298;BME280;30517;51.932;4.278;2024-01-30T07:33:50;102499.81;;;9.47;75.04
37298;BME280;30517;51.932;4.278;2024-01-30T07:36:31;102509.84;;;9.60;74.83
37298;BME280;30517;51.932;4.278;2024-01-30T07:39:12;102514.63;;;9.73;73.77
37298;BME280;30517;51.932;4.278;2024-01-30T07:41:53;102517.91;;;9.66;73.87
37298;BME280;30517;51.932;4.278;2024-01-30T07:44:34;102508.97;;;9.61;73.83
37298;BME280;30517;51.932;4.278;2024-01-30T07:47:15;102493.72;;;9.48;74.45
37298;BME280;30517;51.932;4.278;2024-01-30T07:49:56;102523.88;;;9.59;74.23
37298;BME280;30517;51.932;4.278;2024-01-30T07:52:37;102512.41;;;9.57;73.62
37298;BME280;30517;51.932;4.278;2024-01-30T07:55:19;102480.41;;;9.43;74.06
37298;BME280;30517;51.932;4.278;2024-01-30T07:58:01;102528.38;;;9.63;73.60
37298;BME280;30517;51.932;4.278;2024-01-30T08:00:42;102531.00;;;9.63;74.23
37298;BME280;30517;51.932;4.278;2024-01-30T08:03:23;102523.81;;;9.56;74.08
37298;BME280;30517;51.932;4.278;2024-01-30T08:06:04;102540.81;;;9.67;73.72
37298;BME280;30517;51.932;4.278;2024-01-30T08:08:45;102540.75;;;9.66;73.38
37298;BME280;30517;51.932;4.278;2024-01-30T08:11:26;102520.13;;;9.51;73.84
37298;BME280;30517;51.932;4.278;2024-01-30T08:14:09;102556.56;;;9.66;73.38
37298;BME280;30517;51.932;4.278;2024-01-30T08:16:50;102540.41;;;9.53;73.62
37298;BME280;30517;51.932;4.278;2024-01-30T08:19:31;102546.78;;;9.62;73.49
37298;BME280;30517;51.932;4.278;2024-01-30T08:22:12;102536.03;;;9.54;73.77
37298;BME280;30517;51.932;4.278;2024-01-30T08:24:53;102537.06;;;9.59;73.62
37298;BME280;30517;51.932;4.278;2024-01-30T08:27:34;102537.06;;;9.59;73.58
37298;BME280;30517;51.932;4.278;2024-01-30T08:30:15;102537.81;;;9.55;73.43
37298;BME280;30517;51.932;4.278;2024-01-30T08:32:56;102553.03;;;9.65;73.67
37298;BME280;30517;51.932;4.278;2024-01-30T08:35:37;102541.63;;;9.66;73.50
37298;BME280;30517;51.932;4.278;2024-01-30T08:38:18;102529.97;;;9.57;73.86
37298;BME280;30517;51.932;4.278;2024-01-30T08:40:59;102535.38;;;9.63;73.54
37298;BME280;30517;51.932;4.278;2024-01-30T08:43:40;102551.38;;;9.69;73.87
37298;BME280;30517;51.932;4.278;2024-01-30T08:46:21;102552.38;;;9.72;73.55
37298;BME280;30517;51.932;4.278;2024-01-30T08:49:02;102559.97;;;9.62;73.56
37298;BME280;30517;51.932;4.278;2024-01-30T08:51:46;102553.91;;;9.66;73.36
37298;BME280;30517;51.932;4.278;2024-01-30T08:54:27;102555.59;;;9.64;73.30
37298;BME280;30517;51.932;4.278;2024-01-30T08:57:08;102569.16;;;9.76;73.20
37298;BME280;30517;51.932;4.278;2024-01-30T08:59:49;102582.19;;;9.71;73.10
37298;BME280;30517;51.932;4.278;2024-01-30T09:02:30;102580.41;;;9.70;73.62
37298;BME280;30517;51.932;4.278;2024-01-30T09:05:11;102569.69;;;9.64;73.37
37298;BME280;30517;51.932;4.278;2024-01-30T09:07:52;102575.16;;;9.72;73.38
37298;BME280;30517;51.932;4.278;2024-01-30T09:10:33;102585.72;;;9.72;73.91
37298;BME280;30517;51.932;4.278;2024-01-30T09:13:14;102593.75;;;9.77;73.57
37298;BME280;30517;51.932;4.278;2024-01-30T09:15:55;102597.28;;;9.77;73.69
37298;BME280;30517;51.932;4.278;2024-01-30T09:18:36;102599.81;;;9.72;73.35
37298;BME280;30517;51.932;4.278;2024-01-30T09:21:17;102592.56;;;9.65;73.70
37298;BME280;30517;51.932;4.278;2024-01-30T09:24:02;102600.84;;;9.78;73.50
37298;BME280;30517;51.932;4.278;2024-01-30T09:26:46;102596.44;;;9.78;73.53
37298;BME280;30517;51.932;4.278;2024-01-30T09:29:27;102596.31;;;9.73;73.63
37298;BME280;30517;51.932;4.278;2024-01-30T09:32:08;102614.91;;;9.80;73.61
37298;BME280;30517;51.932;4.278;2024-01-30T09:34:49;102644.06;;;9.84;73.52
37298;BME280;30517;51.932;4.278;2024-01-30T09:37:30;102619.00;;;9.68;73.75
37298;BME280;30517;51.932;4.278;2024-01-30T09:40:11;102626.47;;;9.83;73.47
37298;BME280;30517;51.932;4.278;2024-01-30T09:42:52;102662.34;;;9.80;73.77
37298;BME280;30517;51.932;4.278;2024-01-30T09:45:35;102634.00;;;9.71;73.76
37298;BME280;30517;51.932;4.278;2024-01-30T09:48:16;102628.88;;;9.75;73.66
37298;BME280;30517;51.932;4.278;2024-01-30T09:50:57;102576.91;;;9.41;73.58
37298;BME280;30517;51.932;4.278;2024-01-30T09:53:39;102620.72;;;9.68;73.53
37298;BME280;30517;51.932;4.278;2024-01-30T09:56:20;102624.00;;;9.59;73.18
37298;BME280;30517;51.932;4.278;2024-01-30T09:59:02;102629.50;;;9.67;73.48
37298;BME280;30517;51.932;4.278;2024-01-30T10:01:43;102665.00;;;9.80;73.47
37298;BME280;30517;51.932;4.278;2024-01-30T10:04:24;102628.63;;;9.68;73.60
37298;BME280;30517;51.932;4.278;2024-01-30T10:07:06;102653.56;;;9.79;73.75
37298;BME280;30517;51.932;4.278;2024-01-30T10:09:47;102628.63;;;9.68;73.87
37298;BME280;30517;51.932;4.278;2024-01-30T10:12:29;102650.59;;;9.68;73.54
37298;BME280;30517;51.932;4.278;2024-01-30T10:15:11;102665.00;;;9.80;73.78
37298;BME280;30517;51.932;4.278;2024-01-30T10:17:52;102657.88;;;9.75;73.84
37298;BME280;30517;51.932;4.278;2024-01-30T10:20:34;102648.84;;;9.67;73.54
37298;BME280;30517;51.932;4.278;2024-01-30T10:23:15;102684.31;;;9.79;73.25
37298;BME280;30517;51.932;4.278;2024-01-30T10:25:55;102660.41;;;9.72;73.55
37298;BME280;30517;51.932;4.278;2024-01-30T10:28:36;102672.09;;;9.82;74.18
37298;BME280;30517;51.932;4.278;2024-01-30T10:31:18;102685.28;;;9.82;73.74
37298;BME280;30517;51.932;4.278;2024-01-30T10:33:59;102678.22;;;9.81;73.86
37298;BME280;30517;51.932;4.278;2024-01-30T10:36:40;102670.88;;;9.71;73.81
37298;BME280;30517;51.932;4.278;2024-01-30T10:39:25;102669.34;;;9.78;73.58
37298;BME280;30517;51.932;4.278;2024-01-30T10:42:11;102693.25;;;9.84;73.59
37298;BME280;30517;51.932;4.278;2024-01-30T10:45:02;102682.78;;;9.87;73.33
37298;BME280;30517;51.932;4.278;2024-01-30T10:47:53;102700.38;;;9.88;73.45
37298;BME280;30517;51.932;4.278;2024-01-30T10:50:36;102688.06;;;9.87;73.44
37298;BME280;30517;51.932;4.278;2024-01-30T10:53:17;102662.13;;;9.72;73.51
37298;BME280;30517;51.932;4.278;2024-01-30T10:55:59;102684.16;;;9.74;73.89
37298;BME280;30517;51.932;4.278;2024-01-30T10:58:41;102697.50;;;9.80;73.88
37298;BME280;30517;51.932;4.278;2024-01-30T11:01:22;102696.72;;;9.83;73.88
37298;BME280;30517;51.932;4.278;2024-01-30T11:04:04;102694.59;;;9.71;74.04
37298;BME280;30517;51.932;4.278;2024-01-30T11:06:45;102717.69;;;9.78;73.78
37298;BME280;30517;51.932;4.278;2024-01-30T11:09:29;102713.22;;;9.75;73.78
37298;BME280;30517;51.932;4.278;2024-01-30T11:12:12;102711.53;;;9.78;73.72
37298;BME280;30517;51.932;4.278;2024-01-30T11:15:12;102697.41;;;9.77;73.99
37298;BME280;30517;51.932;4.278;2024-01-30T11:17:54;102692.78;;;9.68;73.79
37298;BME280;30517;51.932;4.278;2024-01-30T11:20:35;102691.97;;;9.71;73.60
37298;BME280;30517;51.932;4.278;2024-01-30T11:23:16;102689.34;;;9.71;73.70
37298;BME280;30517;51.932;4.278;2024-01-30T11:25:57;102696.53;;;9.77;73.94
37298;BME280;30517;51.932;4.278;2024-01-30T11:28:38;102702.84;;;9.82;73.58
37298;BME280;30517;51.932;4.278;2024-01-30T11:31:19;102655.22;;;9.47;73.82
37298;BME280;30517;51.932;4.278;2024-01-30T11:34:00;102691.09;;;9.70;73.76
37298;BME280;30517;51.932;4.278;2024-01-30T11:36:43;102706.34;;;9.81;73.57
37298;BME280;30517;51.932;4.278;2024-01-30T11:39:27;102715.06;;;9.80;73.95
37298;BME280;30517;51.932;4.278;2024-01-30T11:42:08;102700.13;;;9.79;73.56
37298;BME280;30517;51.932;4.278;2024-01-30T11:44:49;102688.44;;;9.70;73.57
37298;BME280;30517;51.932;4.278;2024-01-30T11:47:31;102684.88;;;9.68;73.67
37298;BME280;30517;51.932;4.278;2024-01-30T11:50:12;102686.59;;;9.68;73.39
37298;BME280;30517;51.932;4.278;2024-01-30T11:52:54;102708.97;;;9.81;73.73
37298;BME280;30517;51.932;4.278;2024-01-30T11:55:35;102696.25;;;9.67;73.64
37298;BME280;30517;51.932;4.278;2024-01-30T11:58:17;102696.19;;;9.66;73.33
37298;BME280;30517;51.932;4.278;2024-01-30T12:00:58;102722.88;;;9.77;73.37
37298;BME280;30517;51.932;4.278;2024-01-30T12:03:40;102725.53;;;9.77;73.54
37298;BME280;30517;51.932;4.278;2024-01-30T12:06:21;102725.59;;;9.78;73.72
37298;BME280;30517;51.932;4.278;2024-01-30T12:09:02;102693.47;;;9.63;73.54
37298;BME280;30517;51.932;4.278;2024-01-30T12:11:50;102715.06;;;9.80;73.44
37298;BME280;30517;51.932;4.278;2024-01-30T12:14:31;102731.47;;;9.69;73.09
37298;BME280;30517;51.932;4.278;2024-01-30T12:17:43;102723.03;;;9.81;73.71
37298;BME280;30517;51.932;4.278;2024-01-30T12:20:23;102735.25;;;9.78;73.38
37298;BME280;30517;51.932;4.278;2024-01-30T12:23:04;102740.78;;;9.87;73.27
37298;BME280;30517;51.932;4.278;2024-01-30T12:25:45;102697.28;;;9.44;73.51
37298;BME280;30517;51.932;4.278;2024-01-30T12:28:26;102746.69;;;9.80;73.30
37298;BME280;30517;51.932;4.278;2024-01-30T12:31:07;102694.19;;;9.30;73.35
37298;BME280;30517;51.932;4.278;2024-01-30T12:33:49;102737.66;;;9.71;73.62
37298;BME280;30517;51.932;4.278;2024-01-30T12:36:30;102747.47;;;9.75;73.94
37298;BME280;30517;51.932;4.278;2024-01-30T12:39:12;102771.28;;;9.79;73.44
37298;BME280;30517;51.932;4.278;2024-01-30T12:41:54;102725.97;;;9.63;73.52
37298;BME280;30517;51.932;4.278;2024-01-30T12:44:35;102753.78;;;9.81;73.59
37298;BME280;30517;51.932;4.278;2024-01-30T12:47:16;102734.84;;;9.65;73.45
37298;BME280;30517;51.932;4.278;2024-01-30T12:49:57;102763.31;;;9.77;73.56
37298;BME280;30517;51.932;4.278;2024-01-30T12:52:38;102756.19;;;9.74;73.58
37298;BME280;30517;51.932;4.278;2024-01-30T12:55:19;102768.63;;;9.79;73.38
37298;BME280;30517;51.932;4.278;2024-01-30T12:58:00;102761.78;;;9.84;73.11
37298;BME280;30517;51.932;4.278;2024-01-30T13:00:41;102746.44;;;9.43;73.43
37298;BME280;30517;51.932;4.278;2024-01-30T13:03:23;102765.06;;;9.77;73.54
37298;BME280;30517;51.932;4.278;2024-01-30T13:06:04;102757.81;;;9.69;73.46
37298;BME280;30517;51.932;4.278;2024-01-30T13:08:45;102782.94;;;9.87;73.08
37298;BME280;30517;51.932;4.278;2024-01-30T13:11:26;102762.47;;;9.78;73.22
37298;BME280;30517;51.932;4.278;2024-01-30T13:14:07;102778.47;;;9.84;72.74
37298;BME280;30517;51.932;4.278;2024-01-30T13:16:48;102758.72;;;9.70;73.61
37298;BME280;30517;51.932;4.278;2024-01-30T13:19:29;102767.53;;;9.72;73.41
37298;BME280;30517;51.932;4.278;2024-01-30T13:22:09;102774.78;;;9.78;73.64
37298;BME280;30517;51.932;4.278;2024-01-30T13:24:50;102777.50;;;9.81;73.36
37298;BME280;30517;51.932;4.278;2024-01-30T13:27:33;102766.75;;;9.74;73.32
37298;BME280;30517;51.932;4.278;2024-01-30T13:30:14;102788.03;;;9.53;74.97
37298;BME280;30517;51.932;4.278;2024-01-30T13:32:56;102795.53;;;9.68;73.88
37298;BME280;30517;51.932;4.278;2024-01-30T13:35:37;102784.00;;;9.65;74.01
37298;BME280;30517;51.932;4.278;2024-01-30T13:38:18;102809.03;;;9.78;73.72
37298;BME280;30517;51.932;4.278;2024-01-30T13:40:59;102796.59;;;9.73;73.57
37298;BME280;30517;51.932;4.278;2024-01-30T13:43:40;102800.06;;;9.72;73.75
37298;BME280;30517;51.932;4.278;2024-01-30T13:46:21;102793.06;;;9.73;73.67
37298;BME280;30517;51.932;4.278;2024-01-30T13:49:02;102790.25;;;9.68;73.73
37298;BME280;30517;51.932;4.278;2024-01-30T13:51:43;102799.22;;;9.73;73.83
37298;BME280;30517;51.932;4.278;2024-01-30T13:54:24;102796.44;;;9.69;73.47
37298;BME280;30517;51.932;4.278;2024-01-30T13:57:05;102800.78;;;9.67;73.29
37298;BME280;30517;51.932;4.278;2024-01-30T13:59:47;102822.25;;;9.79;73.58
37298;BME280;30517;51.932;4.278;2024-01-30T14:02:28;102821.34;;;9.79;73.48
37298;BME280;30517;51.932;4.278;2024-01-30T14:05:09;102822.84;;;9.70;73.53
37298;BME280;30517;51.932;4.278;2024-01-30T14:07:51;102824.63;;;9.71;73.62
37298;BME280;30517;51.932;4.278;2024-01-30T14:10:32;102801.25;;;9.55;73.57
37298;BME280;30517;51.932;4.278;2024-01-30T14:13:13;102806.63;;;9.58;73.74
37298;BME280;30517;51.932;4.278;2024-01-30T14:15:54;102819.84;;;9.60;73.73